sensor_id;sensor_type;location;lat;lon;timestamp;P1;durP1;ratioP1;P2;durP2;ratioP2
29120;SDS011;16191;49.548;8.658;2022-10-16T00:01:21;2.72;;;1.85;;
29120;SDS011;16191;49.548;8.658;2022-10-16T00:03:50;4.07;;;1.63;;
29120;SDS011;16191;49.548;8.658;2022-10-16T00:06:19;5.28;;;1.70;;
29120;SDS011;16191;49.548;8.658;2022-10-16T00:08:47;4.07;;;2.00;;
29120;SDS011;16191;49.548;8.658;2022-10-16T00:11:16;6.78;;;2.38;;
29120;SDS011;16191;49.548;8.658;2022-10-16T00:13:45;4.35;;;2.17;;
29120;SDS011;16191;49.548;8.658;2022-10-16T00:16:15;3.78;;;1.85;;
29120;SDS011;16191;49.548;8.658;2022-10-16T00:18:41;8.63;;;2.33;;
29120;SDS011;16191;49.548;8.658;2022-10-16T00:21:10;4.82;;;2.03;;
29120;SDS011;16191;49.548;8.658;2022-10-16T00:24:12;3.88;;;1.73;;
29120;SDS011;16191;49.548;8.658;2022-10-16T00:26:59;8.40;;;2.10;;
29120;SDS011;16191;49.548;8.658;2022-10-16T00:29:49;8.80;;;1.75;;
29120;SDS011;16191;49.548;8.658;2022-10-16T00:32:37;7.70;;;2.28;;
29120;SDS011;16191;49.548;8.658;2022-10-16T00:35:23;8.48;;;2.38;;
29120;SDS011;16191;49.548;8.658;2022-10-16T00:38:10;3.67;;;1.90;;
29120;SDS011;16191;49.548;8.658;2022-10-16T00:40:37;8.10;;;2.17;;
29120;SDS011;16191;49.548;8.658;2022-10-16T00:43:14;5.20;;;1.90;;
29120;SDS011;16191;49.548;8.658;2022-10-16T00:45:59;4.43;;;2.30;;
29120;SDS011;16191;49.548;8.658;2022-10-16T00:48:26;6.43;;;2.03;;
29120;SDS011;16191;49.548;8.658;2022-10-16T00:50:53;4.70;;;2.05;;
29120;SDS011;16191;49.548;8.658;2022-10-16T00:53:20;4.72;;;2.00;;
29120;SDS011;16191;49.548;8.658;2022-10-16T00:55:47;7.47;;;2.00;;
29120;SDS011;16191;49.548;8.658;2022-10-16T00:58:14;7.18;;;2.10;;
29120;SDS011;16191;49.548;8.658;2022-10-16T01:00:40;3.55;;;1.80;;
29120;SDS011;16191;49.548;8.658;2022-10-16T01:03:30;9.25;;;1.90;;
29120;SDS011;16191;49.548;8.658;2022-10-16T01:08:54;6.68;;;1.50;;
29120;SDS011;16191;49.548;8.658;2022-10-16T01:11:38;3.83;;;1.63;;
29120;SDS011;16191;49.548;8.658;2022-10-16T01:14:19;3.13;;;1.25;;
29120;SDS011;16191;49.548;8.658;2022-10-16T01:16:55;3.15;;;1.20;;
29120;SDS011;16191;49.548;8.658;2022-10-16T01:19:44;2.30;;;1.30;;
29120;SDS011;16191;49.548;8.658;2022-10-16T01:22:24;3.70;;;1.05;;
29120;SDS011;16191;49.548;8.658;2022-10-16T01:24:55;1.55;;;1.05;;
29120;SDS011;16191;49.548;8.658;2022-10-16T01:27:26;3.50;;;1.20;;
29120;SDS011;16191;49.548;8.658;2022-10-16T01:29:59;3.00;;;1.33;;
29120;SDS011;16191;49.548;8.658;2022-10-16T01:32:36;1.00;;;0.95;;
29120;SDS011;16191;49.548;8.658;2022-10-16T01:37:40;2.17;;;1.10;;
29120;SDS011;16191;49.548;8.658;2022-10-16T01:40:15;2.22;;;1.10;;
29120;SDS011;16191;49.548;8.658;2022-10-16T01:42:49;2.00;;;1.10;;
29120;SDS011;16191;49.548;8.658;2022-10-16T01:45:19;3.83;;;1.20;;
29120;SDS011;16191;49.548;8.658;2022-10-16T01:47:47;1.58;;;1.23;;
29120;SDS011;16191;49.548;8.658;2022-10-16T01:50:16;3.13;;;1.02;;
29120;SDS011;16191;49.548;8.658;2022-10-16T01:52:48;3.70;;;1.42;;
29120;SDS011;16191;49.548;8.658;2022-10-16T01:55:22;3.47;;;1.08;;
29120;SDS011;16191;49.548;8.658;2022-10-16T01:57:55;3.38;;;1.00;;
29120;SDS011;16191;49.548;8.658;2022-10-16T02:00:24;5.78;;;1.40;;
29120;SDS011;16191;49.548;8.658;2022-10-16T02:02:53;2.17;;;1.17;;
29120;SDS011;16191;49.548;8.658;2022-10-16T02:05:26;3.72;;;1.30;;
29120;SDS011;16191;49.548;8.658;2022-10-16T02:07:56;5.50;;;1.15;;
29120;SDS011;16191;49.548;8.658;2022-10-16T02:10:28;4.63;;;1.23;;
29120;SDS011;16191;49.548;8.658;2022-10-16T02:13:11;5.03;;;1.13;;
29120;SDS011;16191;49.548;8.658;2022-10-16T02:15:43;2.65;;;1.15;;
29120;SDS011;16191;49.548;8.658;2022-10-16T02:18:09;3.15;;;1.10;;
29120;SDS011;16191;49.548;8.658;2022-10-16T02:20:39;1.75;;;1.00;;
29120;SDS011;16191;49.548;8.658;2022-10-16T02:23:20;2.63;;;1.00;;
29120;SDS011;16191;49.548;8.658;2022-10-16T02:26:09;2.08;;;0.85;;
29120;SDS011;16191;49.548;8.658;2022-10-16T02:28:42;5.28;;;0.90;;
29120;SDS011;16191;49.548;8.658;2022-10-16T02:31:14;3.03;;;1.00;;
29120;SDS011;16191;49.548;8.658;2022-10-16T02:33:45;4.05;;;1.20;;
29120;SDS011;16191;49.548;8.658;2022-10-16T02:38:42;7.57;;;1.10;;
29120;SDS011;16191;49.548;8.658;2022-10-16T02:41:08;2.97;;;1.10;;
29120;SDS011;16191;49.548;8.658;2022-10-16T02:43:35;3.78;;;1.40;;
29120;SDS011;16191;49.548;8.658;2022-10-16T02:46:02;6.07;;;1.10;;
29120;SDS011;16191;49.548;8.658;2022-10-16T02:48:29;3.97;;;0.98;;
29120;SDS011;16191;49.548;8.658;2022-10-16T02:50:55;5.90;;;1.38;;
29120;SDS011;16191;49.548;8.658;2022-10-16T02:53:23;4.43;;;1.27;;
29120;SDS011;16191;49.548;8.658;2022-10-16T02:55:49;4.50;;;1.10;;
29120;SDS011;16191;49.548;8.658;2022-10-16T02:58:16;2.63;;;1.30;;
29120;SDS011;16191;49.548;8.658;2022-10-16T03:00:43;6.40;;;1.30;;
29120;SDS011;16191;49.548;8.658;2022-10-16T03:03:10;6.20;;;1.20;;
29120;SDS011;16191;49.548;8.658;2022-10-16T03:05:36;2.42;;;1.00;;
29120;SDS011;16191;49.548;8.658;2022-10-16T03:08:03;3.28;;;1.10;;
29120;SDS011;16191;49.548;8.658;2022-10-16T03:10:30;4.55;;;1.20;;
29120;SDS011;16191;49.548;8.658;2022-10-16T03:12:57;8.30;;;1.40;;
29120;SDS011;16191;49.548;8.658;2022-10-16T03:15:24;4.68;;;1.20;;
29120;SDS011;16191;49.548;8.658;2022-10-16T03:17:50;2.53;;;1.00;;
29120;SDS011;16191;49.548;8.658;2022-10-16T03:20:17;4.22;;;1.27;;
29120;SDS011;16191;49.548;8.658;2022-10-16T03:22:44;3.03;;;1.20;;
29120;SDS011;16191;49.548;8.658;2022-10-16T03:25:11;3.70;;;1.23;;
29120;SDS011;16191;49.548;8.658;2022-10-16T03:27:37;4.28;;;1.40;;
29120;SDS011;16191;49.548;8.658;2022-10-16T03:30:05;5.22;;;1.70;;
29120;SDS011;16191;49.548;8.658;2022-10-16T03:32:32;7.80;;;1.20;;
29120;SDS011;16191;49.548;8.658;2022-10-16T03:34:58;4.40;;;0.82;;
29120;SDS011;16191;49.548;8.658;2022-10-16T03:37:25;4.05;;;1.02;;
29120;SDS011;16191;49.548;8.658;2022-10-16T03:39:52;2.00;;;1.10;;
29120;SDS011;16191;49.548;8.658;2022-10-16T03:42:19;7.07;;;1.10;;
29120;SDS011;16191;49.548;8.658;2022-10-16T03:44:45;8.65;;;1.23;;
29120;SDS011;16191;49.548;8.658;2022-10-16T03:47:12;2.17;;;0.98;;
29120;SDS011;16191;49.548;8.658;2022-10-16T03:49:39;2.75;;;0.82;;
29120;SDS011;16191;49.548;8.658;2022-10-16T03:52:05;3.67;;;1.10;;
29120;SDS011;16191;49.548;8.658;2022-10-16T03:54:32;5.78;;;1.10;;
29120;SDS011;16191;49.548;8.658;2022-10-16T03:56:59;4.70;;;1.27;;
29120;SDS011;16191;49.548;8.658;2022-10-16T03:59:25;6.07;;;1.08;;
29120;SDS011;16191;49.548;8.658;2022-10-16T04:01:52;4.05;;;1.30;;
29120;SDS011;16191;49.548;8.658;2022-10-16T04:04:18;3.80;;;1.10;;
29120;SDS011;16191;49.548;8.658;2022-10-16T04:06:45;3.97;;;1.17;;
29120;SDS011;16191;49.548;8.658;2022-10-16T04:09:11;3.40;;;1.25;;
29120;SDS011;16191;49.548;8.658;2022-10-16T04:11:38;3.42;;;0.98;;
29120;SDS011;16191;49.548;8.658;2022-10-16T04:14:05;1.80;;;1.25;;
29120;SDS011;16191;49.548;8.658;2022-10-16T04:16:31;2.40;;;1.10;;
29120;SDS011;16191;49.548;8.658;2022-10-16T04:18:58;2.13;;;1.10;;
29120;SDS011;16191;49.548;8.658;2022-10-16T04:21:26;4.10;;;1.20;;
29120;SDS011;16191;49.548;8.658;2022-10-16T04:23:52;3.38;;;0.90;;
29120;SDS011;16191;49.548;8.658;2022-10-16T04:26:19;5.28;;;1.00;;
29120;SDS011;16191;49.548;8.658;2022-10-16T04:28:45;6.18;;;1.48;;
29120;SDS011;16191;49.548;8.658;2022-10-16T04:31:12;4.60;;;1.30;;
29120;SDS011;16191;49.548;8.658;2022-10-16T04:33:39;5.22;;;1.08;;
29120;SDS011;16191;49.548;8.658;2022-10-16T04:36:08;4.10;;;1.13;;
29120;SDS011;16191;49.548;8.658;2022-10-16T04:38:35;6.57;;;1.50;;
29120;SDS011;16191;49.548;8.658;2022-10-16T04:41:03;3.75;;;1.08;;
29120;SDS011;16191;49.548;8.658;2022-10-16T04:43:30;3.00;;;1.17;;
29120;SDS011;16191;49.548;8.658;2022-10-16T04:45:57;1.60;;;1.20;;
29120;SDS011;16191;49.548;8.658;2022-10-16T04:48:23;5.15;;;1.40;;
29120;SDS011;16191;49.548;8.658;2022-10-16T04:50:50;2.67;;;1.38;;
29120;SDS011;16191;49.548;8.658;2022-10-16T04:53:20;3.60;;;1.08;;
29120;SDS011;16191;49.548;8.658;2022-10-16T04:55:47;3.75;;;1.10;;
29120;SDS011;16191;49.548;8.658;2022-10-16T04:58:14;8.93;;;2.13;;
29120;SDS011;16191;49.548;8.658;2022-10-16T05:00:41;2.88;;;1.25;;
29120;SDS011;16191;49.548;8.658;2022-10-16T05:03:08;9.48;;;1.23;;
29120;SDS011;16191;49.548;8.658;2022-10-16T05:05:35;2.30;;;1.08;;
29120;SDS011;16191;49.548;8.658;2022-10-16T05:08:03;7.25;;;1.67;;
29120;SDS011;16191;49.548;8.658;2022-10-16T05:10:30;3.65;;;1.48;;
29120;SDS011;16191;49.548;8.658;2022-10-16T05:12:57;2.50;;;1.40;;
29120;SDS011;16191;49.548;8.658;2022-10-16T05:15:24;4.63;;;1.35;;
29120;SDS011;16191;49.548;8.658;2022-10-16T05:17:52;2.03;;;1.20;;
29120;SDS011;16191;49.548;8.658;2022-10-16T05:20:22;7.15;;;1.48;;
29120;SDS011;16191;49.548;8.658;2022-10-16T05:22:49;2.67;;;1.25;;
29120;SDS011;16191;49.548;8.658;2022-10-16T05:25:15;6.28;;;1.35;;
29120;SDS011;16191;49.548;8.658;2022-10-16T05:27:42;4.78;;;1.40;;
29120;SDS011;16191;49.548;8.658;2022-10-16T05:30:09;3.30;;;1.48;;
29120;SDS011;16191;49.548;8.658;2022-10-16T05:32:38;6.68;;;1.17;;
29120;SDS011;16191;49.548;8.658;2022-10-16T05:35:05;2.75;;;1.08;;
29120;SDS011;16191;49.548;8.658;2022-10-16T05:37:37;4.63;;;1.23;;
29120;SDS011;16191;49.548;8.658;2022-10-16T05:40:04;3.63;;;1.05;;
29120;SDS011;16191;49.548;8.658;2022-10-16T05:42:31;4.63;;;1.10;;
29120;SDS011;16191;49.548;8.658;2022-10-16T05:44:57;4.30;;;1.20;;
29120;SDS011;16191;49.548;8.658;2022-10-16T05:47:24;1.30;;;1.10;;
29120;SDS011;16191;49.548;8.658;2022-10-16T05:49:51;5.00;;;1.08;;
29120;SDS011;16191;49.548;8.658;2022-10-16T05:52:17;5.93;;;1.10;;
29120;SDS011;16191;49.548;8.658;2022-10-16T05:54:44;3.20;;;0.82;;
29120;SDS011;16191;49.548;8.658;2022-10-16T05:57:10;7.07;;;1.65;;
29120;SDS011;16191;49.548;8.658;2022-10-16T05:59:37;1.48;;;0.80;;
29120;SDS011;16191;49.548;8.658;2022-10-16T06:02:04;2.85;;;1.17;;
29120;SDS011;16191;49.548;8.658;2022-10-16T06:04:30;3.20;;;1.02;;
29120;SDS011;16191;49.548;8.658;2022-10-16T06:07:00;6.07;;;1.50;;
29120;SDS011;16191;49.548;8.658;2022-10-16T06:09:26;2.80;;;0.90;;
29120;SDS011;16191;49.548;8.658;2022-10-16T06:11:54;3.97;;;1.20;;
29120;SDS011;16191;49.548;8.658;2022-10-16T06:14:20;2.92;;;1.20;;
29120;SDS011;16191;49.548;8.658;2022-10-16T06:16:47;4.43;;;1.20;;
29120;SDS011;16191;49.548;8.658;2022-10-16T06:19:13;5.68;;;1.25;;
29120;SDS011;16191;49.548;8.658;2022-10-16T06:21:41;4.78;;;1.08;;
29120;SDS011;16191;49.548;8.658;2022-10-16T06:24:07;3.08;;;1.13;;
29120;SDS011;16191;49.548;8.658;2022-10-16T06:26:34;3.65;;;1.45;;
29120;SDS011;16191;49.548;8.658;2022-10-16T06:29:01;4.65;;;1.27;;
29120;SDS011;16191;49.548;8.658;2022-10-16T06:31:28;10.95;;;1.50;;
29120;SDS011;16191;49.548;8.658;2022-10-16T06:33:57;2.15;;;1.10;;
29120;SDS011;16191;49.548;8.658;2022-10-16T06:36:24;7.15;;;1.35;;
29120;SDS011;16191;49.548;8.658;2022-10-16T06:38:51;5.47;;;1.40;;
29120;SDS011;16191;49.548;8.658;2022-10-16T06:41:19;5.45;;;1.20;;
29120;SDS011;16191;49.548;8.658;2022-10-16T06:43:47;4.22;;;1.00;;
29120;SDS011;16191;49.548;8.658;2022-10-16T06:46:15;2.50;;;0.93;;
29120;SDS011;16191;49.548;8.658;2022-10-16T06:48:44;8.32;;;1.30;;
29120;SDS011;16191;49.548;8.658;2022-10-16T06:51:12;3.50;;;1.10;;
29120;SDS011;16191;49.548;8.658;2022-10-16T06:53:44;5.30;;;1.35;;
29120;SDS011;16191;49.548;8.658;2022-10-16T06:56:28;2.95;;;1.15;;
29120;SDS011;16191;49.548;8.658;2022-10-16T06:58:58;6.05;;;1.25;;
29120;SDS011;16191;49.548;8.658;2022-10-16T07:01:26;4.10;;;1.30;;
29120;SDS011;16191;49.548;8.658;2022-10-16T07:03:52;1.83;;;1.08;;
29120;SDS011;16191;49.548;8.658;2022-10-16T07:06:20;1.70;;;1.05;;
29120;SDS011;16191;49.548;8.658;2022-10-16T07:08:49;9.60;;;1.35;;
29120;SDS011;16191;49.548;8.658;2022-10-16T07:11:17;1.67;;;0.90;;
29120;SDS011;16191;49.548;8.658;2022-10-16T07:13:46;1.25;;;0.90;;
29120;SDS011;16191;49.548;8.658;2022-10-16T07:16:21;2.83;;;1.10;;
29120;SDS011;16191;49.548;8.658;2022-10-16T07:18:53;3.30;;;1.35;;
29120;SDS011;16191;49.548;8.658;2022-10-16T07:21:26;5.35;;;1.35;;
29120;SDS011;16191;49.548;8.658;2022-10-16T07:23:56;3.80;;;1.00;;
29120;SDS011;16191;49.548;8.658;2022-10-16T07:26:25;4.82;;;1.30;;
29120;SDS011;16191;49.548;8.658;2022-10-16T07:28:53;2.92;;;1.25;;
29120;SDS011;16191;49.548;8.658;2022-10-16T07:31:20;1.75;;;1.00;;
29120;SDS011;16191;49.548;8.658;2022-10-16T07:33:47;8.77;;;1.30;;
29120;SDS011;16191;49.548;8.658;2022-10-16T07:36:15;5.80;;;1.40;;
29120;SDS011;16191;49.548;8.658;2022-10-16T07:38:42;5.15;;;1.13;;
29120;SDS011;16191;49.548;8.658;2022-10-16T07:41:13;2.97;;;1.30;;
29120;SDS011;16191;49.548;8.658;2022-10-16T07:43:45;8.73;;;1.50;;
29120;SDS011;16191;49.548;8.658;2022-10-16T07:46:13;4.53;;;1.30;;
29120;SDS011;16191;49.548;8.658;2022-10-16T07:48:40;9.20;;;2.35;;
29120;SDS011;16191;49.548;8.658;2022-10-16T07:51:12;8.35;;;1.67;;
29120;SDS011;16191;49.548;8.658;2022-10-16T07:53:40;7.35;;;1.40;;
29120;SDS011;16191;49.548;8.658;2022-10-16T07:56:07;6.15;;;1.50;;
29120;SDS011;16191;49.548;8.658;2022-10-16T07:58:34;8.88;;;1.48;;
29120;SDS011;16191;49.548;8.658;2022-10-16T08:01:06;5.93;;;1.60;;
29120;SDS011;16191;49.548;8.658;2022-10-16T08:03:34;5.43;;;1.30;;
29120;SDS011;16191;49.548;8.658;2022-10-16T08:06:01;8.82;;;1.33;;
29120;SDS011;16191;49.548;8.658;2022-10-16T08:08:29;4.05;;;1.00;;
29120;SDS011;16191;49.548;8.658;2022-10-16T08:10:56;3.25;;;1.02;;
29120;SDS011;16191;49.548;8.658;2022-10-16T08:13:23;2.70;;;1.35;;
29120;SDS011;16191;49.548;8.658;2022-10-16T08:15:50;4.07;;;1.40;;
29120;SDS011;16191;49.548;8.658;2022-10-16T08:18:16;4.68;;;1.40;;
29120;SDS011;16191;49.548;8.658;2022-10-16T08:20:43;2.88;;;1.40;;
29120;SDS011;16191;49.548;8.658;2022-10-16T08:23:11;3.83;;;1.30;;
29120;SDS011;16191;49.548;8.658;2022-10-16T08:25:39;7.60;;;1.58;;
29120;SDS011;16191;49.548;8.658;2022-10-16T08:28:07;5.65;;;1.25;;
29120;SDS011;16191;49.548;8.658;2022-10-16T08:30:35;3.78;;;1.15;;
29120;SDS011;16191;49.548;8.658;2022-10-16T08:33:02;3.63;;;1.38;;
29120;SDS011;16191;49.548;8.658;2022-10-16T08:35:28;6.55;;;1.30;;
29120;SDS011;16191;49.548;8.658;2022-10-16T08:37:55;5.80;;;1.25;;
29120;SDS011;16191;49.548;8.658;2022-10-16T08:40:26;3.45;;;1.50;;
29120;SDS011;16191;49.548;8.658;2022-10-16T08:48:48;4.63;;;1.40;;
29120;SDS011;16191;49.548;8.658;2022-10-16T08:51:25;3.53;;;1.60;;
29120;SDS011;16191;49.548;8.658;2022-10-16T08:53:54;3.70;;;2.08;;
29120;SDS011;16191;49.548;8.658;2022-10-16T08:56:23;2.40;;;1.40;;
29120;SDS011;16191;49.548;8.658;2022-10-16T08:58:51;4.25;;;1.77;;
29120;SDS011;16191;49.548;8.658;2022-10-16T09:01:32;5.82;;;1.55;;
29120;SDS011;16191;49.548;8.658;2022-10-16T09:04:20;17.77;;;3.15;;
29120;SDS011;16191;49.548;8.658;2022-10-16T09:09:51;7.70;;;1.95;;
29120;SDS011;16191;49.548;8.658;2022-10-16T09:12:28;5.68;;;2.05;;
29120;SDS011;16191;49.548;8.658;2022-10-16T09:15:10;4.00;;;1.83;;
29120;SDS011;16191;49.548;8.658;2022-10-16T09:18:27;5.80;;;1.80;;
29120;SDS011;16191;49.548;8.658;2022-10-16T09:23:29;8.27;;;2.35;;
29120;SDS011;16191;49.548;8.658;2022-10-16T09:26:00;7.07;;;1.80;;
29120;SDS011;16191;49.548;8.658;2022-10-16T09:28:28;4.43;;;1.52;;
29120;SDS011;16191;49.548;8.658;2022-10-16T09:30:54;3.10;;;1.50;;
29120;SDS011;16191;49.548;8.658;2022-10-16T09:33:22;2.28;;;1.15;;
29120;SDS011;16191;49.548;8.658;2022-10-16T09:35:53;3.88;;;1.00;;
29120;SDS011;16191;49.548;8.658;2022-10-16T09:38:23;4.45;;;0.90;;
29120;SDS011;16191;49.548;8.658;2022-10-16T09:41:01;4.28;;;0.95;;
29120;SDS011;16191;49.548;8.658;2022-10-16T09:43:39;4.20;;;0.82;;
29120;SDS011;16191;49.548;8.658;2022-10-16T09:48:54;3.53;;;1.02;;
29120;SDS011;16191;49.548;8.658;2022-10-16T09:51:30;1.63;;;0.80;;
29120;SDS011;16191;49.548;8.658;2022-10-16T09:54:00;2.08;;;1.05;;
29120;SDS011;16191;49.548;8.658;2022-10-16T09:56:29;3.42;;;0.90;;
29120;SDS011;16191;49.548;8.658;2022-10-16T10:01:53;6.07;;;1.98;;
29120;SDS011;16191;49.548;8.658;2022-10-16T10:04:22;5.70;;;1.92;;
29120;SDS011;16191;49.548;8.658;2022-10-16T10:06:50;1.88;;;1.10;;
29120;SDS011;16191;49.548;8.658;2022-10-16T10:09:24;7.05;;;1.58;;
29120;SDS011;16191;49.548;8.658;2022-10-16T10:19:40;2.25;;;0.95;;
29120;SDS011;16191;49.548;8.658;2022-10-16T10:22:15;3.03;;;1.00;;
29120;SDS011;16191;49.548;8.658;2022-10-16T10:27:44;3.45;;;1.00;;
29120;SDS011;16191;49.548;8.658;2022-10-16T10:30:38;5.95;;;1.42;;
29120;SDS011;16191;49.548;8.658;2022-10-16T10:33:22;8.07;;;1.17;;
29120;SDS011;16191;49.548;8.658;2022-10-16T10:36:05;3.80;;;1.02;;
29120;SDS011;16191;49.548;8.658;2022-10-16T10:38:39;2.28;;;1.38;;
29120;SDS011;16191;49.548;8.658;2022-10-16T10:43:50;2.50;;;1.25;;
29120;SDS011;16191;49.548;8.658;2022-10-16T10:52:02;4.30;;;1.40;;
29120;SDS011;16191;49.548;8.658;2022-10-16T11:05:46;2.85;;;1.42;;
29120;SDS011;16191;49.548;8.658;2022-10-16T11:08:23;5.25;;;1.27;;
29120;SDS011;16191;49.548;8.658;2022-10-16T11:10:59;1.08;;;0.98;;
29120;SDS011;16191;49.548;8.658;2022-10-16T11:13:39;7.05;;;1.00;;
29120;SDS011;16191;49.548;8.658;2022-10-16T11:21:54;2.58;;;1.20;;
29120;SDS011;16191;49.548;8.658;2022-10-16T11:27:07;4.22;;;1.02;;
29120;SDS011;16191;49.548;8.658;2022-10-16T11:29:36;2.15;;;0.90;;
29120;SDS011;16191;49.548;8.658;2022-10-16T11:32:21;3.03;;;1.00;;
29120;SDS011;16191;49.548;8.658;2022-10-16T11:37:24;3.63;;;1.33;;
29120;SDS011;16191;49.548;8.658;2022-10-16T11:39:59;3.17;;;1.02;;
29120;SDS011;16191;49.548;8.658;2022-10-16T11:42:41;2.13;;;0.95;;
29120;SDS011;16191;49.548;8.658;2022-10-16T11:48:02;2.22;;;1.02;;
29120;SDS011;16191;49.548;8.658;2022-10-16T11:50:56;2.17;;;1.10;;
29120;SDS011;16191;49.548;8.658;2022-10-16T11:53:34;3.60;;;1.13;;
29120;SDS011;16191;49.548;8.658;2022-10-16T11:56:25;4.72;;;1.23;;
29120;SDS011;16191;49.548;8.658;2022-10-16T11:58:58;3.83;;;1.35;;
29120;SDS011;16191;49.548;8.658;2022-10-16T12:04:24;9.18;;;1.20;;
29120;SDS011;16191;49.548;8.658;2022-10-16T12:07:04;3.63;;;1.20;;
29120;SDS011;16191;49.548;8.658;2022-10-16T12:09:37;4.03;;;1.25;;
29120;SDS011;16191;49.548;8.658;2022-10-16T12:12:23;9.25;;;1.52;;
29120;SDS011;16191;49.548;8.658;2022-10-16T12:18:25;1.80;;;0.98;;
29120;SDS011;16191;49.548;8.658;2022-10-16T12:20:58;5.55;;;1.20;;
29120;SDS011;16191;49.548;8.658;2022-10-16T12:23:30;7.03;;;1.40;;
29120;SDS011;16191;49.548;8.658;2022-10-16T12:25:59;1.67;;;1.00;;
29120;SDS011;16191;49.548;8.658;2022-10-16T12:28:32;7.90;;;1.37;;
29120;SDS011;16191;49.548;8.658;2022-10-16T12:31:01;2.70;;;1.10;;
29120;SDS011;16191;49.548;8.658;2022-10-16T12:33:30;1.73;;;0.90;;
29120;SDS011;16191;49.548;8.658;2022-10-16T12:36:00;4.35;;;1.35;;
29120;SDS011;16191;49.548;8.658;2022-10-16T12:38:47;6.45;;;1.17;;
29120;SDS011;16191;49.548;8.658;2022-10-16T12:41:33;3.70;;;1.05;;
29120;SDS011;16191;49.548;8.658;2022-10-16T12:44:02;3.78;;;1.73;;
29120;SDS011;16191;49.548;8.658;2022-10-16T12:49:06;4.93;;;1.88;;
29120;SDS011;16191;49.548;8.658;2022-10-16T12:51:47;4.82;;;1.30;;
29120;SDS011;16191;49.548;8.658;2022-10-16T12:54:18;3.53;;;1.20;;
29120;SDS011;16191;49.548;8.658;2022-10-16T12:59:53;2.25;;;1.20;;
29120;SDS011;16191;49.548;8.658;2022-10-16T13:08:22;4.95;;;1.50;;
29120;SDS011;16191;49.548;8.658;2022-10-16T13:14:16;4.28;;;1.30;;
29120;SDS011;16191;49.548;8.658;2022-10-16T13:22:51;4.07;;;1.75;;
29120;SDS011;16191;49.548;8.658;2022-10-16T13:25:51;6.78;;;1.55;;
29120;SDS011;16191;49.548;8.658;2022-10-16T13:28:33;2.72;;;1.30;;
29120;SDS011;16191;49.548;8.658;2022-10-16T13:31:02;3.40;;;1.55;;
29120;SDS011;16191;49.548;8.658;2022-10-16T13:33:37;1.83;;;1.08;;
29120;SDS011;16191;49.548;8.658;2022-10-16T13:36:06;8.23;;;1.50;;
29120;SDS011;16191;49.548;8.658;2022-10-16T13:41:40;3.63;;;1.17;;
29120;SDS011;16191;49.548;8.658;2022-10-16T13:44:15;6.20;;;1.45;;
29120;SDS011;16191;49.548;8.658;2022-10-16T13:46:57;2.38;;;1.20;;
29120;SDS011;16191;49.548;8.658;2022-10-16T13:49:26;3.00;;;1.10;;
29120;SDS011;16191;49.548;8.658;2022-10-16T13:51:58;5.55;;;1.40;;
29120;SDS011;16191;49.548;8.658;2022-10-16T13:54:27;4.72;;;1.60;;
29120;SDS011;16191;49.548;8.658;2022-10-16T13:56:54;8.73;;;1.30;;
29120;SDS011;16191;49.548;8.658;2022-10-16T13:59:35;1.40;;;1.30;;
29120;SDS011;16191;49.548;8.658;2022-10-16T14:02:15;11.00;;;1.30;;
29120;SDS011;16191;49.548;8.658;2022-10-16T14:04:49;4.78;;;1.00;;
29120;SDS011;16191;49.548;8.658;2022-10-16T14:07:26;7.32;;;1.50;;
29120;SDS011;16191;49.548;8.658;2022-10-16T14:09:55;10.70;;;1.83;;
29120;SDS011;16191;49.548;8.658;2022-10-16T14:12:22;2.35;;;1.30;;
29120;SDS011;16191;49.548;8.658;2022-10-16T14:14:53;4.32;;;1.50;;
29120;SDS011;16191;49.548;8.658;2022-10-16T14:17:30;10.98;;;1.50;;
29120;SDS011;16191;49.548;8.658;2022-10-16T14:20:02;9.70;;;1.45;;
29120;SDS011;16191;49.548;8.658;2022-10-16T14:24:59;6.88;;;1.73;;
29120;SDS011;16191;49.548;8.658;2022-10-16T14:27:33;4.25;;;1.40;;
29120;SDS011;16191;49.548;8.658;2022-10-16T14:32:58;6.57;;;1.40;;
29120;SDS011;16191;49.548;8.658;2022-10-16T14:35:34;7.35;;;1.38;;
29120;SDS011;16191;49.548;8.658;2022-10-16T14:38:03;17.77;;;1.30;;
29120;SDS011;16191;49.548;8.658;2022-10-16T14:40:33;12.77;;;2.20;;
29120;SDS011;16191;49.548;8.658;2022-10-16T14:43:02;9.63;;;1.70;;
29120;SDS011;16191;49.548;8.658;2022-10-16T14:45:30;16.48;;;2.15;;
29120;SDS011;16191;49.548;8.658;2022-10-16T14:48:00;5.67;;;1.63;;
29120;SDS011;16191;49.548;8.658;2022-10-16T14:50:29;8.57;;;1.88;;
29120;SDS011;16191;49.548;8.658;2022-10-16T14:52:56;8.05;;;1.80;;
29120;SDS011;16191;49.548;8.658;2022-10-16T14:55:22;11.23;;;1.92;;
29120;SDS011;16191;49.548;8.658;2022-10-16T14:57:55;5.05;;;1.40;;
29120;SDS011;16191;49.548;8.658;2022-10-16T15:00:26;7.97;;;1.70;;
29120;SDS011;16191;49.548;8.658;2022-10-16T15:02:53;3.67;;;1.23;;
29120;SDS011;16191;49.548;8.658;2022-10-16T15:05:24;4.55;;;1.83;;
29120;SDS011;16191;49.548;8.658;2022-10-16T15:07:53;5.07;;;1.52;;
29120;SDS011;16191;49.548;8.658;2022-10-16T15:10:22;3.33;;;1.08;;
29120;SDS011;16191;49.548;8.658;2022-10-16T15:12:50;4.90;;;1.48;;
29120;SDS011;16191;49.548;8.658;2022-10-16T15:17:50;6.45;;;1.52;;
29120;SDS011;16191;49.548;8.658;2022-10-16T15:20:23;11.13;;;2.08;;
29120;SDS011;16191;49.548;8.658;2022-10-16T15:22:51;2.92;;;1.40;;
29120;SDS011;16191;49.548;8.658;2022-10-16T15:27:59;6.07;;;1.45;;
29120;SDS011;16191;49.548;8.658;2022-10-16T15:30:27;3.67;;;1.13;;
29120;SDS011;16191;49.548;8.658;2022-10-16T15:32:55;4.13;;;1.38;;
29120;SDS011;16191;49.548;8.658;2022-10-16T15:35:22;4.45;;;1.30;;
29120;SDS011;16191;49.548;8.658;2022-10-16T15:37:48;8.63;;;1.27;;
29120;SDS011;16191;49.548;8.658;2022-10-16T15:40:16;7.20;;;1.80;;
29120;SDS011;16191;49.548;8.658;2022-10-16T15:42:44;6.80;;;1.20;;
29120;SDS011;16191;49.548;8.658;2022-10-16T15:45:11;4.43;;;1.63;;
29120;SDS011;16191;49.548;8.658;2022-10-16T15:47:40;7.90;;;1.50;;
29120;SDS011;16191;49.548;8.658;2022-10-16T15:50:11;11.32;;;1.90;;
29120;SDS011;16191;49.548;8.658;2022-10-16T15:52:39;4.50;;;1.40;;
29120;SDS011;16191;49.548;8.658;2022-10-16T15:55:10;8.45;;;1.42;;
29120;SDS011;16191;49.548;8.658;2022-10-16T15:57:37;6.95;;;1.50;;
29120;SDS011;16191;49.548;8.658;2022-10-16T16:00:08;4.00;;;1.42;;
29120;SDS011;16191;49.548;8.658;2022-10-16T16:02:39;6.72;;;1.90;;
29120;SDS011;16191;49.548;8.658;2022-10-16T16:05:07;12.63;;;1.77;;
29120;SDS011;16191;49.548;8.658;2022-10-16T16:07:35;10.32;;;1.60;;
29120;SDS011;16191;49.548;8.658;2022-10-16T16:10:03;4.03;;;1.80;;
29120;SDS011;16191;49.548;8.658;2022-10-16T16:12:32;7.30;;;1.70;;
29120;SDS011;16191;49.548;8.658;2022-10-16T16:14:59;7.78;;;1.50;;
29120;SDS011;16191;49.548;8.658;2022-10-16T16:17:31;7.28;;;1.60;;
29120;SDS011;16191;49.548;8.658;2022-10-16T16:19:58;7.50;;;1.67;;
29120;SDS011;16191;49.548;8.658;2022-10-16T16:22:25;12.32;;;2.05;;
29120;SDS011;16191;49.548;8.658;2022-10-16T16:24:53;7.15;;;1.98;;
29120;SDS011;16191;49.548;8.658;2022-10-16T16:27:20;8.73;;;1.63;;
29120;SDS011;16191;49.548;8.658;2022-10-16T16:29:46;5.68;;;1.60;;
29120;SDS011;16191;49.548;8.658;2022-10-16T16:32:13;9.40;;;1.70;;
29120;SDS011;16191;49.548;8.658;2022-10-16T16:34:40;8.23;;;1.80;;
29120;SDS011;16191;49.548;8.658;2022-10-16T16:37:07;8.95;;;2.20;;
29120;SDS011;16191;49.548;8.658;2022-10-16T16:39:34;12.57;;;2.03;;
29120;SDS011;16191;49.548;8.658;2022-10-16T16:42:00;8.65;;;2.15;;
29120;SDS011;16191;49.548;8.658;2022-10-16T16:44:29;14.15;;;1.85;;
29120;SDS011;16191;49.548;8.658;2022-10-16T16:46:55;10.30;;;2.30;;
29120;SDS011;16191;49.548;8.658;2022-10-16T16:49:22;8.43;;;1.90;;
29120;SDS011;16191;49.548;8.658;2022-10-16T16:51:49;13.68;;;1.90;;
29120;SDS011;16191;49.548;8.658;2022-10-16T16:54:15;9.63;;;2.05;;
29120;SDS011;16191;49.548;8.658;2022-10-16T16:56:42;10.75;;;1.75;;
29120;SDS011;16191;49.548;8.658;2022-10-16T16:59:16;13.15;;;2.10;;